Tiempo atmosférico en la estación meteorológica de El Pedregal, Guadalajara (1185 m.)



Fecha
DESCASC
Temp. máxima en grados centígrados (hora)
DESCASC
Temp. mínima en grados centígrados (hora)
DESCASC
Temp. media en grados centígrados
DESCASC
Racha de viento máxima en m/sg (hora)
DESCASC
Velocidad máxima media en intervalos de 10 minutos(hora)
DESCASC
Precipitaciones diarias en mm
DESCASC
Precipitaciones de 00:00 a 06:00 en mm
DESCASC
Precipitaciones de 06:00 a 12:00 en mm
DESCASC
Precipitaciones de 12:00 a 18:00 en mm
DESCASC
Precipitaciones de 18:00 a 24:00 en mm
DESCASC
23-06-2019 32.4 (18:20) 18.6 (06:20) 25.5 11.11 (03:50) 6.39 (04:20) 0 0 0 0 0
22-06-2019 28.8 (16:50) 7.1 (06:10) 17.9 8.61 (19:20) 5.28 (19:20) 0 0 0 0 0
21-06-2019 23.1 (17:10) 11.7 (06:40) 17.4 10.83 (18:30) 6.94 (18:50) 0 0 0 0 0
20-06-2019 26.9 (12:50) 11.8 (00:00) 19.3 9.17 (20:10) 5.28 (20:20) 0 0 0 0 0
19-06-2019 26.6 (16:50) 10.7 (00:00) 18.7 10.56 (19:30) 5.56 (11:20) 0 0 0 0 0
18-06-2019 28.9 (17:10) 16.2 (00:00) 22.6 11.94 (14:20) 6.11 (17:50) 0 0 0 0 0
17-06-2019 30.1 (17:50) 9.4 (00:00) 19.8 9.17 (18:50) 5 (20:40) 0 0 0 0 0
16-06-2019 27.5 (17:10) 5.3 (00:00) 16.4 9.17 (20:30) 4.17 (20:00) 0 0 0 0 0
15-06-2019 23.9 (18:00) 5.7 (00:00) 14.8 7.78 (16:00) 4.17 (18:10) 0 0 0 0 0
14-06-2019 23.7 (16:10) 11.1 (00:00) 17.4 12.5 (18:00) 6.39 (16:40) 2.2 0 2.2 0 0
13-06-2019 23.7 (16:20) 10.4 (00:00) 17.1 15.56 (05:20) 8.61 (06:20) 0 0 0 0 0
12-06-2019 23.6 (19:20) 0 (00:00) 11.8 11.67 (23:59) 5.56 (23:59) 0 0 0 0 0
11-06-2019 13.3 (19:20) 3.4 (00:00) 8.4 9.44 (16:30) 5.56 (16:30) 0.4 0 0 0.4 0
10-06-2019 22.5 (18:10) 8.3 (00:00) 15.4 9.44 (16:20) 4.72 (15:50) 0 0 0 0 0
09-06-2019 24.5 (16:40) 10.7 (00:00) 17.6 10.83 (13:50) 5.83 (18:10) 0 0 0 0 0
08-06-2019 25.2 (16:20) 3 (00:00) 14.1 16.67 (15:30) 8.33 (13:30) 0 0 0 0 0
07-06-2019 19.8 (18:50) 8.5 (00:00) 14.1 12.78 (11:40) 6.94 (10:10) 0 0 0 0 0
06-06-2019 22 (17:10) 4 (00:00) 13 14.72 (19:00) 7.22 (17:20) 0 0 0 0 0
05-06-2019 17.9 (00:50) 6.5 (00:00) 12.2 17.22 (12:00) 9.17 (12:10) 1.4 0 0.4 1 0
04-06-2019 27.6 (16:10) 16.8 (00:00) 22.2 12.22 (13:40) 6.39 (13:40) 0 0 0 0 0
03-06-2019 29.4 (16:10) 13.4 (00:00) 21.4 12.5 (17:10) 6.67 (16:50) 0 0 0 0 0
02-06-2019 31 (18:50) 10 (00:00) 20.5 8.06 (16:50) 4.72 (17:00) 0 0 0 0 0
01-06-2019 29.6 (19:10) 8.6 (00:00) 19.1 8.06 (20:50) 5 (20:50) 0 0 0 0 0
31-05-2019 28.3 (17:10) 7.1 (00:00) 17.7 8.61 (18:00) 4.72 (19:50) 0 0 0 0 0
30-05-2019 24.5 (18:10) 4.1 (00:00) 14.3 7.78 (18:40) 4.72 (11:30) 0 0 0 0 0
29-05-2019 18.7 (18:30) 3.7 (00:00) 11.2 10.56 (15:10) 5.83 (11:40) 0 0 0 0 0
28-05-2019 18 (16:10) 6.1 (00:00) 12 11.67 (14:30) 5.28 (18:20) 0 0 0 0 0
27-05-2019 22 (15:40) 7 (00:00) 14.5 9.44 (14:40) 6.39 (18:50) 0 0 0 0 0
26-05-2019 19.3 (17:20) 6.2 (00:00) 12.7 8.33 (16:10) 4.72 (19:00) 0 0 0 0 0

Gráficas

Temp. máximas Temp. mínimas Temp. medias Precipitaciones Rachas de viento máximas Velocidades máximas media en intervalos de 10 minutos

Datos horarios

Fecha y hora oficial Temperatura (ºC) Velocidad del viento (km/h) Dirección del viento Racha (km/h) Dirección de racha Precipitación (mm) Presión (hPa) Tendencia (hPa) Humedad (%)
2019-06-24 23:00:00 -- -- -- -- -- -- -- -- --
2019-06-24 22:00:00 23.3 7 Oeste 17 Oeste 0 -- -- 36
2019-06-24 21:00:00 25.4 7 Oeste 19 Oeste 0 -- -- 34
2019-06-24 20:00:00 28.2 10 Oeste 25 Oeste 0 -- -- 29
2019-06-24 19:00:00 29.8 13 Oeste 31 Este 0 -- -- 27
2019-06-24 18:00:00 30 22 Este 36 Este 0 -- -- 27
2019-06-24 17:00:00 31.6 23 Este 35 Este 0 -- -- 25
2019-06-24 16:00:00 31.4 17 Sudeste 34 Sudeste 0 -- -- 24
2019-06-24 15:00:00 30.1 19 Este 32 Sudeste 0 -- -- 25
2019-06-24 14:00:00 30.9 16 Este 27 Este 0 -- -- 24
2019-06-24 13:00:00 29 5 Oeste 22 Nordeste 0 -- -- 26
2019-06-24 12:00:00 27.9 15 Este 31 Este 0 -- -- 26
2019-06-24 11:00:00 25.1 12 Este 18 Este 0 -- -- 30
2019-06-24 10:00:00 22.4 10 Este 16 Este 0 -- -- 33
2019-06-24 09:00:00 21 9 Sudeste 14 Sudeste 0 -- -- 34
2019-06-24 08:00:00 19.9 0 Calma 16 Sudeste 0 -- -- 35
2019-06-24 07:00:00 19.5 8 Sur 24 Sur 0 -- -- 32
2019-06-24 06:00:00 19.1 9 Sudoeste 30 Sudeste 0 -- -- 30
2019-06-24 05:00:00 18.9 8 Sur 17 Oeste 0 -- -- 29
2019-06-24 04:00:00 18.8 12 Sudeste 34 Sur 0 -- -- 30
2019-06-24 03:00:00 19.7 9 Sudeste 26 Sur 0 -- -- 30
2019-06-24 02:00:00 19.4 8 Sudeste 23 Sudeste 0 -- -- 40
2019-06-24 01:00:00 19.2 2 Nordeste 9 Sudeste 0 -- -- 46
2019-06-24 00:00:00 20.4 0 Calma 13 Sudeste 0 -- -- 45
2019-06-23 23:00:00 22.4 5 Sur 18 Este 0 -- -- 41
2019-06-23 22:00:00 23.8 8 Este 22 Sur 0 -- -- 38
2019-06-23 21:00:00 26.7 12 Sur 22 Sudoeste 0 -- -- 34
2019-06-23 20:00:00 31.3 9 Sudoeste 21 Sudoeste 0 -- -- 24
2019-06-23 19:00:00 30.5 13 Sudoeste 25 Sudoeste 0 -- -- 24
2019-06-23 18:00:00 31.7 11 Sur 30 Sudoeste 0 -- -- 23
2019-06-23 17:00:00 31.4 12 Sur 27 Sur 0 -- -- 24
2019-06-23 16:00:00 31.1 6 Sudeste 32 Sudoeste 0 -- -- 26
2019-06-23 15:00:00 30.3 11 Sudoeste 30 Sudoeste 0 -- -- 28
2019-06-23 14:00:00 30.6 10 Sudoeste 29 Sur 0 -- -- 29
2019-06-23 13:00:00 29.1 14 Sur 25 Sudeste 0 -- -- 29
2019-06-23 12:00:00 28.5 12 Sur 24 Sudoeste 0 -- -- 29
2019-06-23 11:00:00 26.7 14 Sudoeste 26 Sudoeste 0 -- -- 27
2019-06-23 10:00:00 25 13 Sur 26 Sur 0 -- -- 31
2019-06-23 09:00:00 22.2 14 Sur 31 Sudoeste 0 -- -- 38
2019-06-23 08:00:00 20.2 19 Sudoeste 33 Sur 0 -- -- 40
2019-06-23 07:00:00 18.6 22 Sudoeste 39 Sudoeste 0 -- -- 45
2019-06-23 06:00:00 18.7 21 Sudoeste 34 Sudoeste 0 -- -- 49
2019-06-23 05:00:00 19 21 Sudoeste 34 Sudoeste 0 -- -- 52
2019-06-23 04:00:00 18.9 21 Sudoeste 40 Sudoeste 0 -- -- 57
2019-06-23 03:00:00 19.4 22 Sudoeste 33 Sudoeste 0 -- -- 56
2019-06-23 02:00:00 19.7 18 Sudoeste 33 Sur 0 -- -- 58
2019-06-23 01:00:00 20 15 Sudoeste 27 Sur 0 -- -- 59
2019-06-23 00:00:00 20.5 16 Sudoeste 26 Sudoeste 0 -- -- 57
2019-06-22 23:00:00 19.3 0 Calma 14 Sudoeste 0 -- -- 43
2019-06-22 22:00:00 21.7 5 Oeste 13 Sudoeste 0 -- -- 36
2019-06-22 21:00:00 24.4 7 Oeste 25 Oeste 0 -- -- 30
2019-06-22 20:00:00 27 14 Oeste 31 Oeste 0 -- -- 24
2019-06-22 19:00:00 27.5 11 Noroeste 29 Oeste 0 -- -- 27
2019-06-22 18:00:00 28.4 14 Oeste 29 Oeste 0 -- -- 26
2019-06-22 17:00:00 28.8 6 Sudoeste 28 Oeste 0 -- -- 26
2019-06-22 16:00:00 28.5 10 Oeste 27 Sudoeste 0 -- -- 22
2019-06-22 15:00:00 27.1 8 Sudoeste 26 Oeste 0 -- -- 25
2019-06-22 14:00:00 26.5 6 Este 18 Este 0 -- -- 32
2019-06-22 13:00:00 25 8 Nordeste 17 Nordeste 0 -- -- 39
2019-06-22 12:00:00 24.7 8 Sudeste 17 Este 0 -- -- 43
2019-06-22 11:00:00 21.7 9 Este 15 Este 0 -- -- 50
2019-06-22 10:00:00 18.4 8 Sudeste 12 Este 0 -- -- 58
2019-06-22 09:00:00 15.9 5 Sudeste 9 Sudeste 0 -- -- 66
2019-06-22 08:00:00 11.6 0 Calma 5 Oeste 0 -- -- 80
2019-06-22 07:00:00 7.3 3 Oeste 5 Oeste 0 -- -- 91
2019-06-22 06:00:00 7.3 3 Oeste 5 Sudoeste 0 -- -- 91
2019-06-22 05:00:00 7.7 3 Oeste 9 Oeste 0 -- -- 89
2019-06-22 04:00:00 8.2 4 Oeste 7 Oeste 0 -- -- 87
2019-06-22 03:00:00 8.5 5 Oeste 9 Oeste 0 -- -- 87
2019-06-22 02:00:00 9.5 4 Oeste 6 Sudoeste 0 -- -- 84
2019-06-22 01:00:00 11.1 3 Este 5 Sudeste 0 -- -- 77
2019-06-22 00:00:00 12.5 2 Nordeste 13 Este 0 -- -- 74
2019-06-21 23:00:00 13.3 6 Este 13 Nordeste 0 -- -- 71
2019-06-21 22:00:00 14.8 8 Nordeste 19 Nordeste 0 -- -- 66
2019-06-21 21:00:00 17.5 15 Nordeste 26 Nordeste 0 -- -- 58
2019-06-21 20:00:00 19.5 18 Nordeste 32 Nordeste 0 -- -- 51
2019-06-21 19:00:00 19.6 22 Nordeste 39 Nordeste 0 -- -- 52
2019-06-21 18:00:00 22.6 14 Nordeste 30 Nordeste 0 -- -- 44
2019-06-21 17:00:00 22.7 14 Nordeste 27 Norte 0 -- -- 44
2019-06-21 16:00:00 21.2 15 Nordeste 32 Nordeste 0 -- -- 49
2019-06-21 15:00:00 20.1 15 Nordeste 36 Norte 0 -- -- 53
2019-06-21 14:00:00 21.8 20 Nordeste 33 Nordeste 0 -- -- 49
2019-06-21 13:00:00 22 14 Nordeste 27 Nordeste 0 -- -- 49
2019-06-21 12:00:00 20.7 8 Nordeste 18 Nordeste 0 -- -- 53
2019-06-21 11:00:00 18.7 6 Nordeste 15 Este 0 -- -- 60
2019-06-21 10:00:00 16.1 7 Este 17 Nordeste 0 -- -- 70
2019-06-21 09:00:00 14.2 12 Nordeste 17 Nordeste 0 -- -- 78
2019-06-21 08:00:00 12.4 8 Nordeste 14 Nordeste 0 -- -- 87
2019-06-21 07:00:00 11.8 4 Nordeste 17 Nordeste 0 -- -- 89
2019-06-21 06:00:00 12.2 10 Nordeste 17 Nordeste 0 -- -- 85
2019-06-21 05:00:00 12.3 9 Nordeste 16 Nordeste 0 -- -- 84
2019-06-21 04:00:00 12.2 8 Norte 18 Nordeste 0 -- -- 87
2019-06-21 03:00:00 12.5 6 Nordeste 13 Norte 0 -- -- 88
2019-06-21 02:00:00 13 5 Nordeste 9 Nordeste 0 -- -- 86
2019-06-21 01:00:00 12.9 3 Este 15 Nordeste 0 -- -- 86
2019-06-21 00:00:00 14.8 12 Nordeste 23 Nordeste 0 -- -- 81
2019-06-20 23:00:00 16.8 12 Nordeste 22 Este 0 -- -- 77
2019-06-20 22:00:00 18.1 13 Este 18 Este 0 -- -- 67
2019-06-20 21:00:00 19.6 11 Este 33 Este 0 -- -- 56
2019-06-20 20:00:00 22.8 11 Nordeste 18 Norte 0 -- -- 48
2019-06-20 19:00:00 23.4 8 Nordeste 18 Nordeste 0 -- -- 49
2019-06-20 18:00:00 22.7 15 Nordeste 26 Nordeste 0 -- -- 48
2019-06-20 17:00:00 22.2 17 Nordeste 28 Nordeste 0 -- -- 52
2019-06-20 16:00:00 24.8 10 Noroeste 21 Noroeste 0 -- -- 34
2019-06-20 15:00:00 25.8 11 Oeste 18 Oeste 0 -- -- 32
2019-06-20 14:00:00 25.3 5 Nordeste 21 Nordeste 0 -- -- 34
2019-06-20 13:00:00 26.2 10 Este 21 Este 0 -- -- 34
2019-06-20 12:00:00 22.8 5 Nordeste 17 Este 0 -- -- 41
2019-06-20 11:00:00 22.1 9 Nordeste 20 Nordeste 0 -- -- 46
2019-06-20 10:00:00 21.3 10 Este 15 Este 0 -- -- 45
2019-06-20 09:00:00 20 3 Este 6 Nordeste 0 -- -- 48
2019-06-20 08:00:00 15 0 Calma 6 Oeste 0 -- -- 63
2019-06-20 07:00:00 11.9 5 Oeste 9 Oeste 0 -- -- 71
2019-06-20 06:00:00 13.2 7 Oeste 12 Oeste 0 -- -- 67
2019-06-20 05:00:00 13.1 8 Oeste 13 Oeste 0 -- -- 67
2019-06-20 04:00:00 13.8 8 Oeste 13 Oeste 0 -- -- 65
2019-06-20 03:00:00 15.3 6 Oeste 15 Oeste 0 -- -- 60
2019-06-20 02:00:00 15.4 5 Oeste 15 Oeste 0 -- -- 59
2019-06-20 01:00:00 17.3 7 Noroeste 19 Oeste 0 -- -- 53
2019-06-20 00:00:00 18.2 11 Oeste 21 Oeste 0 -- -- 50
2019-06-19 23:00:00 18.8 7 Oeste 14 Oeste 0 -- -- 47
2019-06-19 22:00:00 20 8 Oeste 17 Oeste 0 -- -- 44
2019-06-19 21:00:00 23 9 Oeste 27 Oeste 0 -- -- 36
2019-06-19 20:00:00 25.2 16 Oeste 38 Oeste 0 -- -- 32
2019-06-19 19:00:00 25.9 18 Oeste 37 Oeste 0 -- -- 30
2019-06-19 18:00:00 26.2 18 Oeste 33 Sudoeste 0 -- -- 29
2019-06-19 17:00:00 26.1 17 Oeste 33 Oeste 0 -- -- 31
2019-06-19 16:00:00 25.4 14 Oeste 30 Oeste 0 -- -- 34
2019-06-19 15:00:00 25.1 15 Oeste 34 Oeste 0 -- -- 34
2019-06-19 14:00:00 24.6 13 Sudoeste 30 Sudoeste 0 -- -- 36
2019-06-19 13:00:00 22.6 17 Sudoeste 32 Oeste 0 -- -- 40
2019-06-19 12:00:00 22.1 19 Oeste 31 Oeste 0 -- -- 44
2019-06-19 11:00:00 20.2 15 Oeste 35 Oeste 0 -- -- 51
2019-06-19 10:00:00 18.9 17 Oeste 29 Oeste 0 -- -- 56
2019-06-19 09:00:00 17.7 16 Oeste 27 Oeste 0 -- -- 58
2019-06-19 08:00:00 15.5 4 Oeste 14 Oeste 0 -- -- 60
2019-06-19 07:00:00 10.9 0 Calma 10 Noroeste 0 -- -- 66
2019-06-19 06:00:00 13.3 6 Oeste 14 Oeste 0 -- -- 57
2019-06-19 05:00:00 11.9 2 Oeste 6 Oeste 0 -- -- 55
2019-06-19 04:00:00 12.1 2 Sudeste 7 Norte 0 -- -- 50
2019-06-19 03:00:00 14.7 2 Nordeste 17 Oeste 0 -- -- 43
2019-06-19 02:00:00 17.2 10 Oeste 16 Oeste 0 -- -- 37
2019-06-19 01:00:00 16 3 Oeste 13 Noroeste 0 -- -- 33
2019-06-19 00:00:00 18.5 4 Oeste 24 Sudoeste 0 -- -- 30
2019-06-18 23:00:00 21.5 10 Sudoeste 24 Sudoeste 0 -- -- 25
2019-06-18 22:00:00 22.2 8 Oeste 25 Sudoeste 0 -- -- 26
2019-06-18 21:00:00 25.2 13 Sudoeste 40 Oeste 0 -- -- 21
2019-06-18 20:00:00 27.4 16 Sudoeste 37 Sudoeste 0 -- -- 22
2019-06-18 19:00:00 27.9 17 Sudoeste 40 Sudoeste 0 -- -- 21
2019-06-18 18:00:00 28.3 21 Sudoeste 42 Sudoeste 0 -- -- 21
2019-06-18 17:00:00 28.6 20 Oeste 39 Sudoeste 0 -- -- 21
2019-06-18 16:00:00 28.1 18 Sudoeste 41 Sudoeste 0 -- -- 22
2019-06-18 15:00:00 28.2 16 Sudoeste 43 Sudoeste 0 -- -- 23
2019-06-18 14:00:00 27.8 17 Sudoeste 33 Oeste 0 -- -- 25
2019-06-18 13:00:00 26.9 19 Oeste 33 Oeste 0 -- -- 25
2019-06-18 12:00:00 26.2 14 Oeste 29 Sudoeste 0 -- -- 24
2019-06-18 11:00:00 25.2 15 Sudoeste 27 Sudoeste 0 -- -- 25
2019-06-18 10:00:00 23.8 17 Sudoeste 29 Sudoeste 0 -- -- 26
2019-06-18 09:00:00 18.8 0 Calma 7 Oeste 0 -- -- 47
2019-06-18 08:00:00 16.5 0 Calma 9 Sur 0 -- -- 52
2019-06-18 07:00:00 16.6 4 Norte 13 Oeste 0 -- -- 49
2019-06-18 06:00:00 18.6 6 Oeste 28 Sudoeste 0 -- -- 41
2019-06-18 05:00:00 19.7 20 Sudoeste 29 Sudoeste 0 -- -- 39
2019-06-18 04:00:00 19.3 14 Sudoeste 28 Sudoeste 0 -- -- 42
2019-06-18 03:00:00 20.1 17 Sudoeste 27 Sudoeste 0 -- -- 41
2019-06-18 02:00:00 20.1 13 Sudoeste 26 Sudoeste 0 -- -- 43
2019-06-18 01:00:00 20.3 13 Sudoeste 21 Sudoeste 0 -- -- 33
2019-06-18 00:00:00 18.4 3 Nordeste 19 Sudoeste 0 -- -- 34
2019-06-17 23:00:00 22.2 10 Sudoeste 24 Sudoeste 0 -- -- 26
2019-06-17 22:00:00 21.3 5 Oeste 15 Oeste 0 -- -- 28
2019-06-17 21:00:00 25.1 15 Oeste 30 Oeste 0 -- -- 22
2019-06-17 20:00:00 28.1 13 Oeste 25 Oeste 0 -- -- 20
2019-06-17 19:00:00 28.8 14 Sudoeste 33 Oeste 0 -- -- 20
2019-06-17 18:00:00 29.9 9 Noroeste 22 Noroeste 0 -- -- 18
2019-06-17 17:00:00 28.8 13 Oeste 27 Este 0 -- -- 21
2019-06-17 16:00:00 28.7 6 Norte 26 Sudeste 0 -- -- 21
2019-06-17 15:00:00 27.6 11 Sudeste 25 Este 0 -- -- 24
2019-06-17 14:00:00 28.2 14 Este 26 Sudeste 0 -- -- 23
2019-06-17 13:00:00 25.7 9 Sur 24 Este 0 -- -- 26
2019-06-17 12:00:00 25.8 10 Este 21 Este 0 -- -- 26
2019-06-17 11:00:00 24.7 8 Este 18 Este 0 -- -- 29
2019-06-17 10:00:00 22.7 6 Este 13 Este 0 -- -- 35
2019-06-17 09:00:00 19.9 3 Este 5 Sudeste 0 -- -- 42
2019-06-17 08:00:00 13.5 0 Calma 13 Oeste 0 -- -- 59
2019-06-17 07:00:00 9.6 9 Oeste 11 Oeste 0 -- -- 66
2019-06-17 06:00:00 11.1 0 Calma 10 Sudoeste 0 -- -- 61
2019-06-17 05:00:00 10.8 5 Oeste 9 Oeste 0 -- -- 61
2019-06-17 04:00:00 14 3 Oeste 13 Oeste 0 -- -- 53
2019-06-17 03:00:00 17.2 9 Oeste 14 Oeste 0 -- -- 43
2019-06-17 02:00:00 16.1 4 Oeste 10 Nordeste 0 -- -- 49
2019-06-17 01:00:00 14.7 3 Sur 16 Sudoeste 0 -- -- 52
2019-06-17 00:00:00 18.9 9 Sudoeste 29 Sudoeste 0 -- -- 40
2019-06-16 23:00:00 19.8 12 Oeste 25 Sudoeste 0 -- -- 36
2019-06-16 22:00:00 20.5 12 Sudoeste 30 Sudoeste 0 -- -- 37
2019-06-16 21:00:00 21.9 11 Sudoeste 33 Oeste 0 -- -- 33
2019-06-16 20:00:00 23.7 15 Oeste 26 Oeste 0 -- -- 28
2019-06-16 19:00:00 25.7 8 Noroeste 27 Noroeste 0 -- -- 26
2019-06-16 18:00:00 26.6 11 Noroeste 23 Oeste 0 -- -- 24
2019-06-16 17:00:00 26.9 12 Oeste 29 Oeste 0 -- -- 24
2019-06-16 16:00:00 26.4 10 Noroeste 29 Oeste 0 -- -- 24
2019-06-16 15:00:00 26.4 6 Nordeste 25 Sudoeste 0 -- -- 24
2019-06-16 14:00:00 25.8 5 Sudoeste 27 Este 0 -- -- 25
2019-06-16 13:00:00 25.3 13 Nordeste 21 Nordeste 0 -- -- 27
2019-06-16 12:00:00 23.5 12 Sudeste 23 Sudeste 0 -- -- 28
2019-06-16 11:00:00 22.1 12 Este 20 Este 0 -- -- 35
2019-06-16 10:00:00 19.4 11 Este 16 Este 0 -- -- 41
2019-06-16 09:00:00 15.5 6 Sudeste 9 Este 0 -- -- 51
2019-06-16 08:00:00 9.9 0 Calma 6 Oeste 0 -- -- 74
2019-06-16 07:00:00 5.6 3 Oeste 10 Oeste 0 -- -- 86
2019-06-16 06:00:00 5.5 3 Oeste 5 Oeste 0 -- -- 86
2019-06-16 05:00:00 6 3 Oeste 7 Oeste 0 -- -- 84
2019-06-16 04:00:00 7 0 Calma 2 Nordeste 0 -- -- 80
2019-06-16 03:00:00 8.1 0 Calma 3 Nordeste 0 -- -- 75
2019-06-16 02:00:00 10 2 Norte 9 Este 0 -- -- 69
2019-06-16 01:00:00 11.4 7 Este 16 Nordeste 0 -- -- 63
2019-06-16 00:00:00 13.1 13 Este 21 Este 0 -- -- 56
2019-06-15 23:00:00 14.2 11 Este 17 Nordeste 0 -- -- 53
2019-06-15 22:00:00 15.7 5 Norte 11 Nordeste 0 -- -- 48
2019-06-15 21:00:00 19.8 7 Norte 18 Norte 0 -- -- 33
2019-06-15 20:00:00 21.7 12 Norte 23 Nordeste 0 -- -- 30
2019-06-15 19:00:00 23.1 9 Nordeste 25 Nordeste 0 -- -- 29
2019-06-15 18:00:00 23.9 6 Noroeste 23 Nordeste 0 -- -- 27
2019-06-15 17:00:00 23.1 9 Norte 25 Norte 0 -- -- 28
2019-06-15 16:00:00 22.4 12 Norte 28 Norte 0 -- -- 28
2019-06-15 15:00:00 21 10 Oeste 22 Oeste 0 -- -- 29
2019-06-15 14:00:00 20.1 9 Norte 22 Oeste 0 -- -- 30
2019-06-15 13:00:00 18.6 10 Norte 19 Oeste 0 -- -- 36
2019-06-15 12:00:00 17.3 10 Sudoeste 27 Oeste 0 -- -- 41
2019-06-15 11:00:00 15.9 9 Noroeste 20 Norte 0 -- -- 44
2019-06-15 10:00:00 13.7 10 Noroeste 20 Noroeste 0 -- -- 51
2019-06-15 09:00:00 11.8 11 Oeste 24 Oeste 0 -- -- 55
2019-06-15 08:00:00 9.9 12 Oeste 19 Oeste 0 -- -- 58
2019-06-15 07:00:00 7.7 12 Oeste 15 Oeste 0 -- -- 64
2019-06-15 06:00:00 7.3 7 Noroeste 12 Noroeste 0 -- -- 66
2019-06-15 05:00:00 6 0 Calma 6 Oeste 0 -- -- 71
2019-06-15 04:00:00 7 0 Calma 5 Oeste 0 -- -- 68
2019-06-15 03:00:00 7.8 4 Oeste 10 Oeste 0 -- -- 62
2019-06-15 02:00:00 10.3 4 Norte 18 Sudoeste 0 -- -- 51
2019-06-15 01:00:00 13.1 8 Sudoeste 19 Sudoeste 0 -- -- 40
2019-06-15 00:00:00 13.6 3 Oeste 20 Sudoeste 0 -- -- 40
2019-06-14 23:00:00 15.3 8 Oeste 19 Sudoeste 0 -- -- 36
2019-06-14 22:00:00 16.7 6 Oeste 22 Sudoeste 0 -- -- 33
2019-06-14 21:00:00 20.2 10 Oeste 35 Oeste 0 -- -- 26
2019-06-14 20:00:00 22.4 17 Oeste 35 Oeste 0 -- -- 23
2019-06-14 19:00:00 23.4 18 Sudoeste 37 Sudoeste 0 -- -- 25
2019-06-14 18:00:00 23.5 19 Sudoeste 45 Sudoeste 0 -- -- 28
2019-06-14 17:00:00 23 18 Oeste 43 Oeste 0 -- -- 29
2019-06-14 16:00:00 23.1 20 Oeste 38 Sudoeste 0 -- -- 29
2019-06-14 15:00:00 22.3 18 Sudoeste 32 Oeste 0 -- -- 32
2019-06-14 14:00:00 21.5 17 Sudoeste 31 Oeste 0 -- -- 41
2019-06-14 13:00:00 19.7 14 Sudoeste 29 Oeste 0 -- -- 50
2019-06-14 12:00:00 17.4 12 Oeste 26 Oeste 0 -- -- 57
2019-06-14 11:00:00 13.6 14 Oeste 22 Oeste 0.6 -- -- 90
2019-06-14 10:00:00 12.6 10 Oeste 23 Sudoeste 1.6 -- -- 91
2019-06-14 09:00:00 14.7 0 Calma 11 Sudeste 0 -- -- 71
2019-06-14 08:00:00 12.5 0 Calma 6 Sur 0 -- -- 77
2019-06-14 07:00:00 11.1 3 Noroeste 10 Oeste 0 -- -- 79
2019-06-14 06:00:00 13 4 Noroeste 16 Oeste 0 -- -- 72
2019-06-14 05:00:00 14.4 9 Oeste 18 Sudoeste 0 -- -- 67
2019-06-14 04:00:00 12.8 9 Oeste 13 Oeste 0 -- -- 74
2019-06-14 03:00:00 12.2 3 Sudoeste 11 Oeste 0 -- -- 78
2019-06-14 02:00:00 13 0 Calma 6 Este 0 -- -- 75
2019-06-14 01:00:00 14 2 Sudeste 5 Sudeste 0 -- -- 72
2019-06-14 00:00:00 14.8 3 Noroeste 15 Sudeste 0 -- -- 70
2019-06-13 23:00:00 15.3 3 Norte 20 Sur 0 -- -- 69
2019-06-13 22:00:00 16.6 15 Sur 28 Sudeste 0 -- -- 67
2019-06-13 21:00:00 18.7 16 Sudeste 24 Sudeste 0 -- -- 57
2019-06-13 20:00:00 21 13 Sudeste 30 Sudeste 0 -- -- 44
2019-06-13 19:00:00 21.7 14 Sudeste 27 Este 0 -- -- 42
2019-06-13 18:00:00 22.2 9 Sudeste 29 Sudeste 0 -- -- 36
2019-06-13 17:00:00 22.2 9 Sur 24 Sudoeste 0 -- -- 36
2019-06-13 16:00:00 23.1 14 Sur 31 Sur 0 -- -- 36
2019-06-13 15:00:00 22.2 15 Sur 39 Sudeste 0 -- -- 39
2019-06-13 14:00:00 20.8 20 Sur 41 Sudeste 0 -- -- 46
2019-06-13 13:00:00 20.6 20 Sur 35 Sur 0 -- -- 47
2019-06-13 12:00:00 19.9 18 Sur 36 Sur 0 -- -- 49
2019-06-13 11:00:00 18.1 21 Sur 37 Sur 0 -- -- 55
2019-06-13 10:00:00 16.4 24 Sur 48 Sur 0 -- -- 61
2019-06-13 09:00:00 14.7 22 Sur 48 Sur 0 -- -- 66
2019-06-13 08:00:00 13.4 28 Sur 50 Sur 0 -- -- 71
2019-06-13 07:00:00 11.9 24 Sudoeste 52 Sur 0 -- -- 75
2019-06-13 06:00:00 11.4 29 Sudoeste 56 Sur 0 -- -- 76
2019-06-13 05:00:00 10.9 26 Sudoeste 47 Sur 0 -- -- 79
2019-06-13 04:00:00 10.4 29 Sudoeste 43 Sudoeste 0 -- -- 78
2019-06-13 03:00:00 11.7 18 Sudoeste 31 Sudoeste 0 -- -- 66
2019-06-13 02:00:00 11.9 23 Sudoeste 45 Sudoeste 0 -- -- 65
2019-06-13 01:00:00 12.3 26 Sudoeste 45 Sudoeste 0 -- -- 64
2019-06-13 00:00:00 13 20 Sudoeste 42 Sur 0 -- -- 61
2019-06-12 23:00:00 13.9 14 Sudoeste 23 Sur 0 -- -- 57
2019-06-12 22:00:00 14 4 Noroeste 19 Nordeste 0 -- -- 46
2019-06-12 21:00:00 17 10 Nordeste 26 Oeste 0 -- -- 36
2019-06-12 20:00:00 21.3 10 Oeste 28 Oeste 0 -- -- 23
2019-06-12 19:00:00 21.7 12 Oeste 36 Oeste 0 -- -- 24
2019-06-12 18:00:00 21.8 10 Oeste 30 Sudoeste 0 -- -- 23
2019-06-12 17:00:00 20.9 5 Oeste 19 Este 0 -- -- 22
2019-06-12 16:00:00 20 4 Norte 22 Nordeste 0 -- -- 26
2019-06-12 15:00:00 20.1 11 Nordeste 23 Este 0 -- -- 28
2019-06-12 14:00:00 18.5 9 Norte 22 Este 0 -- -- 31
2019-06-12 13:00:00 17 5 Oeste 19 Nordeste 0 -- -- 35
2019-06-12 12:00:00 15 5 Noroeste 19 Oeste 0 -- -- 35
2019-06-12 11:00:00 14 9 Noroeste 21 Oeste 0 -- -- 40
2019-06-12 10:00:00 13.2 7 Este 15 Este 0 -- -- 53
2019-06-12 09:00:00 9.1 6 Sudeste 12 Sudeste 0 -- -- 67
2019-06-12 08:00:00 3.6 2 Este 5 Sudeste 0 -- -- 91
2019-06-12 07:00:00 0.5 4 Sudoeste 10 Oeste 0 -- -- 93
2019-06-12 06:00:00 0.5 0 Calma 10 Oeste 0 -- -- 93
2019-06-12 05:00:00 0.2 4 Oeste 5 Oeste 0 -- -- 93
2019-06-12 04:00:00 0.8 0 Calma 6 Oeste 0 -- -- 94
2019-06-12 03:00:00 1.3 0 Calma 5 Sudoeste 0 -- -- 92
2019-06-12 02:00:00 1.3 4 Oeste 6 Oeste 0 -- -- 91
2019-06-12 01:00:00 2.7 2 Sudeste 4 Nordeste 0 -- -- 89
2019-06-12 00:00:00 3.4 0 Calma 9 Oeste 0 -- -- 87
2019-06-11 23:00:00 4.6 6 Oeste 8 Oeste 0 -- -- 82
2019-06-11 22:00:00 6.3 4 Oeste 10 Oeste 0 -- -- 78
2019-06-11 21:00:00 10.1 6 Oeste 10 Oeste 0 -- -- 62
2019-06-11 20:00:00 9.7 11 Norte 24 Norte 0 -- -- 63
2019-06-11 19:00:00 12.6 8 Nordeste 15 Norte 0 -- -- 55
2019-06-11 18:00:00 11.5 2 Nordeste 13 Norte 0.2 -- -- 67
2019-06-11 17:00:00 6.8 13 Norte 34 Norte 0.2 -- -- 84
2019-06-11 16:00:00 12.8 9 Nordeste 22 Norte 0 -- -- 54
2019-06-11 15:00:00 9.3 10 Nordeste 18 Norte 0 -- -- 66
2019-06-11 14:00:00 6.9 9 Nordeste 22 Nordeste 0 -- -- 86
2019-06-11 13:00:00 6.2 12 Norte 21 Noroeste 0 -- -- 86
2019-06-11 12:00:00 6.3 14 Norte 24 Norte 0 -- -- 80
2019-06-11 11:00:00 7.6 12 Nordeste 21 Nordeste 0 -- -- 76
2019-06-11 10:00:00 7.4 12 Nordeste 21 Norte 0 -- -- 77
2019-06-11 09:00:00 6.6 13 Nordeste 23 Nordeste 0 -- -- 80
2019-06-11 08:00:00 6.7 11 Nordeste 19 Nordeste 0 -- -- 75
2019-06-11 07:00:00 6.4 15 Nordeste 20 Nordeste 0 -- -- 74
2019-06-11 06:00:00 7.2 10 Nordeste 15 Este 0 -- -- 72
2019-06-11 05:00:00 7.6 9 Este 13 Este 0 -- -- 71
2019-06-11 04:00:00 7.7 9 Sudeste 14 Sudeste 0 -- -- 70
2019-06-11 03:00:00 7.6 8 Este 13 Sudeste 0 -- -- 71
2019-06-11 02:00:00 7.5 6 Este 13 Este 0 -- -- 72
2019-06-11 01:00:00 7.3 8 Sudeste 13 Este 0 -- -- 74
2019-06-11 00:00:00 8.3 7 Nordeste 16 Nordeste 0 -- -- 71
2019-06-10 23:00:00 9.6 5 Este 15 Este 0 -- -- 67
2019-06-10 22:00:00 11.4 12 Nordeste 22 Nordeste 0 -- -- 61
2019-06-10 21:00:00 14.7 10 Nordeste 18 Nordeste 0 -- -- 52
2019-06-10 20:00:00 15.8 13 Nordeste 23 Nordeste 0 -- -- 50
2019-06-10 19:00:00 20.5 12 Noroeste 33 Norte 0 -- -- 33
2019-06-10 18:00:00 21.4 16 Noroeste 31 Norte 0 -- -- 33
2019-06-10 17:00:00 21.9 16 Oeste 34 Norte 0 -- -- 32
2019-06-10 16:00:00 21.5 9 Noroeste 32 Noroeste 0 -- -- 33
2019-06-10 15:00:00 20.8 11 Norte 28 Noroeste 0 -- -- 37
2019-06-10 14:00:00 18.7 14 Noroeste 31 Noroeste 0 -- -- 41
2019-06-10 13:00:00 18.8 9 Noroeste 24 Noroeste 0 -- -- 43
2019-06-10 12:00:00 18.1 12 Noroeste 26 Noroeste 0 -- -- 43
2019-06-10 11:00:00 15.9 8 Noroeste 19 Oeste 0 -- -- 57
2019-06-10 10:00:00 13.6 9 Oeste 23 Oeste 0 -- -- 68
2019-06-10 09:00:00 11.3 8 Oeste 16 Sudoeste 0 -- -- 79
2019-06-10 08:00:00 9.7 5 Noroeste 13 Oeste 0 -- -- 89
2019-06-10 07:00:00 9.5 6 Noroeste 11 Noroeste 0 -- -- 92
2019-06-10 06:00:00 9.4 6 Oeste 13 Oeste 0 -- -- 93
2019-06-10 05:00:00 8.8 2 Noroeste 6 Norte 0 -- -- 95
2019-06-10 04:00:00 8.8 0 Calma 8 Nordeste 0 -- -- 94
2019-06-10 03:00:00 8.8 6 Nordeste 18 Norte 0 -- -- 93
2019-06-10 02:00:00 9.4 4 Norte 15 Norte 0 -- -- 89
2019-06-10 01:00:00 11.4 4 Norte 10 Norte 0 -- -- 75
2019-06-10 00:00:00 13.4 3 Nordeste 12 Noroeste 0 -- -- 64
2019-06-09 23:00:00 15.8 5 Noroeste 14 Oeste 0 -- -- 37
2019-06-09 22:00:00 17.9 11 Oeste 25 Oeste 0 -- -- 30
2019-06-09 21:00:00 21.3 13 Oeste 29 Oeste 0 -- -- 24
2019-06-09 20:00:00 23.7 14 Oeste 31 Oeste 0 -- -- 23
2019-06-09 19:00:00 24 15 Noroeste 35 Oeste 0 -- -- 23
2019-06-09 18:00:00 24.1 19 Oeste 35 Oeste 0 -- -- 26
2019-06-09 17:00:00 23.8 19 Oeste 34 Oeste 0 -- -- 28
2019-06-09 16:00:00 23.8 19 Oeste 35 Sudoeste 0 -- -- 27
2019-06-09 15:00:00 23.8 16 Oeste 33 Oeste 0 -- -- 29
2019-06-09 14:00:00 23 17 Oeste 39 Sudoeste 0 -- -- 29
2019-06-09 13:00:00 22.4 16 Oeste 35 Oeste 0 -- -- 30
2019-06-09 12:00:00 22.1 16 Oeste 32 Noroeste 0 -- -- 33
2019-06-09 11:00:00 22 9 Oeste 19 Oeste 0 -- -- 35
2019-06-09 10:00:00 19.4 10 Oeste 17 Oeste 0 -- -- 45
2019-06-09 09:00:00 16.5 5 Oeste 12 Oeste 0 -- -- 55
2019-06-09 08:00:00 12.7 4 Oeste 9 Sudoeste 0 -- -- 65
2019-06-09 07:00:00 10.8 4 Oeste 9 Sur 0 -- -- 70
2019-06-09 06:00:00 11 4 Oeste 8 Oeste 0 -- -- 69
2019-06-09 05:00:00 12.5 2 Sudoeste 9 Norte 0 -- -- 64
2019-06-09 04:00:00 12.7 5 Norte 10 Nordeste 0 -- -- 63
2019-06-09 03:00:00 14.8 9 Norte 29 Sudoeste 0 -- -- 54
2019-06-09 02:00:00 16 9 Sur 27 Sudoeste 0 -- -- 52
2019-06-09 01:00:00 15.3 12 Este 21 Sur 0 -- -- 53
2019-06-09 00:00:00 15.3 10 Sur 18 Sur 0 -- -- 52
2019-06-08 23:00:00 15.1 10 Sur 26 Sur 0 -- -- 53
2019-06-08 22:00:00 17.3 14 Sudoeste 32 Sur 0 -- -- 49
2019-06-08 21:00:00 18.3 18 Sur 33 Sur 0 -- -- 48
2019-06-08 20:00:00 19.6 17 Sur 35 Sudoeste 0 -- -- 46
2019-06-08 19:00:00 21.3 19 Sur 37 Sur 0 -- -- 43
2019-06-08 18:00:00 23.1 18 Sur 50 Sudeste 0 -- -- 40
2019-06-08 17:00:00 25 9 Sur 34 Sur 0 -- -- 34
2019-06-08 16:00:00 24.2 21 Sudeste 60 Sur 0 -- -- 36
2019-06-08 15:00:00 23.7 26 Sudeste 44 Sudeste 0 -- -- 35
2019-06-08 14:00:00 21.9 29 Este 46 Sudeste 0 -- -- 41
2019-06-08 13:00:00 20.8 16 Sudeste 46 Sudeste 0 -- -- 41
2019-06-08 12:00:00 20.5 18 Sudeste 32 Sudeste 0 -- -- 42
2019-06-08 11:00:00 15.8 19 Sudeste 31 Sudeste 0 -- -- 45
2019-06-08 10:00:00 14.2 16 Este 24 Este 0 -- -- 45
2019-06-08 09:00:00 12.9 8 Sudeste 15 Sudeste 0 -- -- 48
2019-06-08 08:00:00 7.4 0 Calma 5 Oeste 0 -- -- 65
2019-06-08 07:00:00 3.6 2 Oeste 5 Oeste 0 -- -- 77
2019-06-08 06:00:00 3.2 0 Calma 2 Sudoeste 0 -- -- 76
2019-06-08 05:00:00 3.3 2 Oeste 6 Sudoeste 0 -- -- 75
2019-06-08 04:00:00 3.8 3 Oeste 10 Oeste 0 -- -- 73
2019-06-08 03:00:00 4.9 5 Oeste 9 Oeste 0 -- -- 68
2019-06-08 02:00:00 5.1 6 Oeste 9 Oeste 0 -- -- 67
2019-06-08 01:00:00 6.4 2 Oeste 5 Oeste 0 -- -- 63
2019-06-08 00:00:00 8.5 3 Oeste 10 Oeste 0 -- -- 56
2019-06-07 23:00:00 10.4 3 Noroeste 16 Noroeste 0 -- -- 51
2019-06-07 22:00:00 12.2 4 Noroeste 20 Norte 0 -- -- 45
2019-06-07 21:00:00 15.3 9 Nordeste 25 Norte 0 -- -- 38
2019-06-07 20:00:00 17.3 16 Norte 27 Nordeste 0 -- -- 34
2019-06-07 19:00:00 19.3 15 Noroeste 27 Oeste 0 -- -- 26
2019-06-07 18:00:00 19.7 13 Noroeste 27 Noroeste 0 -- -- 25
2019-06-07 17:00:00 19.5 10 Noroeste 30 Oeste 0 -- -- 26
2019-06-07 16:00:00 18 15 Noroeste 41 Oeste 0 -- -- 28
2019-06-07 15:00:00 17 18 Noroeste 32 Noroeste 0 -- -- 31
2019-06-07 14:00:00 15.7 17 Noroeste 39 Oeste 0 -- -- 35
2019-06-07 13:00:00 14.2 21 Oeste 41 Oeste 0 -- -- 39
2019-06-07 12:00:00 14 21 Noroeste 46 Oeste 0 -- -- 44
2019-06-07 11:00:00 12.6 19 Oeste 44 Oeste 0 -- -- 58
2019-06-07 10:00:00 10.9 22 Oeste 42 Oeste 0 -- -- 69
2019-06-07 09:00:00 11.4 24 Oeste 41 Oeste 0 -- -- 72
2019-06-07 08:00:00 11.2 15 Oeste 35 Oeste 0 -- -- 79
2019-06-07 07:00:00 12 8 Oeste 23 Sudoeste 0 -- -- 67
2019-06-07 06:00:00 11.6 9 Sudoeste 23 Sudoeste 0 -- -- 64
2019-06-07 05:00:00 11.8 11 Sur 22 Sudoeste 0 -- -- 59
2019-06-07 04:00:00 11.6 8 Sur 15 Sur 0 -- -- 52
2019-06-07 03:00:00 10.6 4 Sur 17 Sur 0 -- -- 66
2019-06-07 02:00:00 11.4 11 Sur 22 Sudeste 0 -- -- 75
2019-06-07 01:00:00 12 12 Sudeste 24 Sudeste 0 -- -- 70
2019-06-07 00:00:00 13 16 Sur 38 Sur 0 -- -- 65
2019-06-06 23:00:00 13.9 17 Sur 35 Sur 0 -- -- 64
2019-06-06 22:00:00 15.3 21 Sur 43 Sur 0 -- -- 59
2019-06-06 21:00:00 17.8 14 Sur 44 Sudoeste 0 -- -- 47
2019-06-06 20:00:00 21.8 18 Sudoeste 49 Sudoeste 0 -- -- 26
2019-06-06 19:00:00 20.9 26 Sudoeste 53 Sudoeste 0 -- -- 29
2019-06-06 18:00:00 21.3 19 Sudoeste 46 Sudoeste 0 -- -- 29
2019-06-06 17:00:00 21.8 20 Sudoeste 43 Sudoeste 0 -- -- 28
2019-06-06 16:00:00 21.2 17 Sudoeste 43 Sur 0 -- -- 27
2019-06-06 15:00:00 20.3 18 Sudoeste 44 Sudoeste 0 -- -- 26
2019-06-06 14:00:00 19.8 20 Sudoeste 39 Sudoeste 0 -- -- 24
2019-06-06 13:00:00 18.8 16 Sudoeste 30 Sur 0 -- -- 29
2019-06-06 12:00:00 17.7 14 Sur 31 Sudoeste 0 -- -- 32
2019-06-06 11:00:00 15.9 15 Sudoeste 32 Sudoeste 0 -- -- 35
2019-06-06 10:00:00 14.6 12 Sudoeste 26 Sudoeste 0 -- -- 40
2019-06-06 09:00:00 12.8 9 Sudoeste 18 Sudoeste 0 -- -- 45
2019-06-06 08:00:00 8.7 4 Oeste 12 Sur 0 -- -- 58
2019-06-06 07:00:00 4.4 0 Calma 8 Este 0 -- -- 74
2019-06-06 06:00:00 5.6 0 Calma 12 Oeste 0 -- -- 67
2019-06-06 05:00:00 5.7 9 Oeste 13 Oeste 0 -- -- 68
2019-06-06 04:00:00 4.5 0 Calma 8 Sudoeste 0 -- -- 82
2019-06-06 03:00:00 4.5 0 Calma 6 Oeste 0 -- -- 88
2019-06-06 02:00:00 4.8 0 Calma 6 Norte 0 -- -- 88
2019-06-06 01:00:00 5.7 0 Calma 5 Norte 0 -- -- 87
2019-06-06 00:00:00 6.6 2 Nordeste 4 Norte 0 -- -- 85
2019-06-05 23:00:00 7.7 0 Calma 8 Este 0 -- -- 80
2019-06-05 22:00:00 9.5 0 Calma 16 Norte 0 -- -- 72
2019-06-05 21:00:00 13.3 5 Norte 18 Noroeste 0 -- -- 50
2019-06-05 20:00:00 16.2 11 Noroeste 28 Noroeste 0 -- -- 40
2019-06-05 19:00:00 15.6 13 Noroeste 31 Noroeste 0 -- -- 40
2019-06-05 18:00:00 15 17 Noroeste 37 Noroeste 0 -- -- 45
2019-06-05 17:00:00 14.5 18 Noroeste 35 Noroeste 0 -- -- 44
2019-06-05 16:00:00 14 23 Noroeste 40 Oeste 0 -- -- 44
2019-06-05 15:00:00 13.2 20 Noroeste 44 Oeste 0.2 -- -- 49
2019-06-05 14:00:00 12.9 19 Noroeste 45 Oeste 0 -- -- 54
2019-06-05 13:00:00 10.7 22 Noroeste 56 Noroeste 0.8 -- -- 68
2019-06-05 12:00:00 -- 30 Oeste 62 Oeste 0.2 -- -- --
2019-06-05 11:00:00 14.1 22 Oeste 48 Oeste 0 -- -- 46
2019-06-05 10:00:00 12.8 26 Oeste 49 Oeste 0 -- -- 61
2019-06-05 09:00:00 11.8 25 Oeste 40 Oeste 0 -- -- 78
2019-06-05 08:00:00 11.2 10 Oeste 27 Oeste 0.2 -- -- 86
2019-06-05 07:00:00 12.5 15 Oeste 32 Sudoeste 0 -- -- 75
2019-06-05 06:00:00 14.1 12 Sudoeste 21 Sudoeste 0 -- -- 61
2019-06-05 05:00:00 14.1 4 Sudoeste 18 Sudoeste 0 -- -- 61
2019-06-05 04:00:00 14 2 Sudoeste 11 Sudoeste 0 -- -- 59
2019-06-05 03:00:00 15.2 0 Calma 8 Nordeste 0 -- -- 57
2019-06-05 02:00:00 15.5 0 Calma 9 Oeste 0 -- -- 55
2019-06-05 01:00:00 17.3 6 Oeste 15 Oeste 0 -- -- 48
2019-06-05 00:00:00 17.3 6 Oeste 12 Oeste 0 -- -- 46
2019-06-04 23:00:00 18.7 6 Oeste 13 Oeste 0 -- -- 44
2019-06-04 22:00:00 20.9 6 Oeste 31 Oeste 0 -- -- 38
2019-06-04 21:00:00 23.2 18 Oeste 35 Oeste 0 -- -- 33
2019-06-04 20:00:00 25.1 15 Sudoeste 33 Sudoeste 0 -- -- 30
2019-06-04 19:00:00 25.4 15 Sudoeste 39 Sudoeste 0 -- -- 28
2019-06-04 18:00:00 27.1 19 Sudoeste 36 Sudoeste 0 -- -- 25
2019-06-04 17:00:00 26.5 17 Sudoeste 38 Sudoeste 0 -- -- 26
2019-06-04 16:00:00 27.3 14 Sudoeste 42 Sudoeste 0 -- -- 24
2019-06-04 15:00:00 26.7 19 Oeste 42 Oeste 0 -- -- 22
2019-06-04 14:00:00 26.2 20 Sudoeste 44 Sudoeste 0 -- -- 24
2019-06-04 13:00:00 25.8 21 Oeste 42 Oeste 0 -- -- 24
2019-06-04 12:00:00 25.4 20 Sudoeste 37 Sudoeste 0 -- -- 27
2019-06-04 11:00:00 24.4 18 Sudoeste 33 Sudoeste 0 -- -- 31
2019-06-04 10:00:00 22.7 17 Sudoeste 30 Oeste 0 -- -- 32
2019-06-04 09:00:00 20.8 14 Sudoeste 29 Sudoeste 0 -- -- 34
2019-06-04 08:00:00 19.3 12 Sudoeste 28 Sudoeste 0 -- -- 36
2019-06-04 07:00:00 17.5 9 Sudoeste 22 Sudoeste 0 -- -- 40
2019-06-04 06:00:00 17.6 18 Sudoeste 29 Sur 0 -- -- 41
2019-06-04 05:00:00 18.4 21 Sudoeste 31 Sudoeste 0 -- -- 41
2019-06-04 04:00:00 19.3 20 Sudoeste 28 Sudoeste 0 -- -- 38
2019-06-04 03:00:00 19.7 19 Sur 27 Sur 0 -- -- 38
2019-06-04 02:00:00 19.1 17 Sur 29 Sur 0 -- -- 39
2019-06-04 01:00:00 20.3 19 Sur 30 Sudoeste 0 -- -- 32
2019-06-04 00:00:00 17.1 0 Calma 11 Sur 0 -- -- 37
2019-06-03 23:00:00 17.3 0 Calma 5 Sudoeste 0 -- -- 39
2019-06-03 22:00:00 19.7 0 Calma 8 Oeste 0 -- -- 35
2019-06-03 21:00:00 25.1 4 Sudoeste 32 Oeste 0 -- -- 26
2019-06-03 20:00:00 28.2 16 Oeste 35 Oeste 0 -- -- 20
2019-06-03 19:00:00 28.8 17 Oeste 36 Oeste 0 -- -- 20
2019-06-03 18:00:00 28.4 15 Sudoeste 45 Oeste 0 -- -- 22
2019-06-03 17:00:00 28.9 18 Oeste 42 Oeste 0 -- -- 23
2019-06-03 16:00:00 28.8 19 Oeste 43 Oeste 0 -- -- 21
2019-06-03 15:00:00 28.2 19 Oeste 36 Oeste 0 -- -- 26
2019-06-03 14:00:00 26.7 20 Oeste 35 Oeste 0 -- -- 27
2019-06-03 13:00:00 27.2 15 Sudoeste 28 Oeste 0 -- -- 27
2019-06-03 12:00:00 27.7 5 Nordeste 18 Sur 0 -- -- 32
2019-06-03 11:00:00 24.7 8 Sudeste 17 Sudeste 0 -- -- 36
2019-06-03 10:00:00 23.6 6 Oeste 15 Oeste 0 -- -- 35
2019-06-03 09:00:00 19 4 Oeste 18 Oeste 0 -- -- 48
2019-06-03 08:00:00 16.7 9 Oeste 19 Oeste 0 -- -- 49
2019-06-03 07:00:00 15.3 2 Noroeste 8 Sur 0 -- -- 50
2019-06-03 06:00:00 14.4 5 Oeste 8 Oeste 0 -- -- 50
2019-06-03 05:00:00 13.4 0 Calma 11 Sudoeste 0 -- -- 57
2019-06-03 04:00:00 16.1 10 Sudoeste 17 Sur 0 -- -- 47
2019-06-03 03:00:00 15.1 0 Calma 10 Este 0 -- -- 54
2019-06-03 02:00:00 17.8 3 Noroeste 17 Oeste 0 -- -- 46
2019-06-03 01:00:00 20 8 Oeste 30 Norte 0 -- -- 39
2019-06-03 00:00:00 17.9 5 Sur 10 Sur 0 -- -- 49
2019-06-02 23:00:00 18.8 5 Sudeste 10 Sur 0 -- -- 41
2019-06-02 22:00:00 19.8 4 Noroeste 9 Noroeste 0 -- -- 39
2019-06-02 21:00:00 25.4 6 Oeste 17 Oeste 0 -- -- 28
2019-06-02 20:00:00 29.1 7 Noroeste 22 Oeste 0 -- -- 23
2019-06-02 19:00:00 30.1 11 Oeste 24 Noroeste 0 -- -- 21
2019-06-02 18:00:00 29.3 13 Oeste 23 Oeste 0 -- -- 21
2019-06-02 17:00:00 29.3 17 Oeste 29 Oeste 0 -- -- 22
2019-06-02 16:00:00 29.7 10 Noroeste 26 Noroeste 0 -- -- 19
2019-06-02 15:00:00 29.3 5 Noroeste 24 Noroeste 0 -- -- 22
2019-06-02 14:00:00 28.9 7 Norte 24 Oeste 0 -- -- 21
2019-06-02 13:00:00 27.8 9 Noroeste 20 Noroeste 0 -- -- 27
2019-06-02 12:00:00 27.1 7 Oeste 21 Noroeste 0 -- -- 29
2019-06-02 11:00:00 24.9 13 Oeste 21 Oeste 0 -- -- 29
2019-06-02 10:00:00 23.3 4 Este 7 Este 0 -- -- 38
2019-06-02 09:00:00 19.9 2 Este 9 Oeste 0 -- -- 47
2019-06-02 08:00:00 13.4 5 Oeste 9 Oeste 0 -- -- 62
2019-06-02 07:00:00 10.1 3 Oeste 14 Oeste 0 -- -- 70
2019-06-02 06:00:00 10.3 9 Oeste 13 Sudoeste 0 -- -- 69
2019-06-02 05:00:00 10.3 9 Oeste 11 Oeste 0 -- -- 68
2019-06-02 04:00:00 11.5 9 Oeste 11 Oeste 0 -- -- 63
2019-06-02 03:00:00 13.3 8 Oeste 12 Oeste 0 -- -- 57
2019-06-02 02:00:00 12.9 2 Sudoeste 7 Sudoeste 0 -- -- 62
2019-06-02 01:00:00 14 2 Noroeste 6 Oeste 0 -- -- 62
2019-06-02 00:00:00 15.1 2 Sudoeste 11 Sudeste 0 -- -- 59
2019-06-01 23:00:00 16.8 8 Este 19 Sudeste 0 -- -- 53
2019-06-01 22:00:00 19.6 12 Este 26 Nordeste 0 -- -- 47
2019-06-01 21:00:00 23.8 17 Nordeste 29 Nordeste 0 -- -- 35
2019-06-01 20:00:00 28.2 13 Este 22 Nordeste 0 -- -- 23
2019-06-01 19:00:00 29.3 8 Nordeste 21 Norte 0 -- -- 22
2019-06-01 18:00:00 29 11 Este 20 Este 0 -- -- 22
2019-06-01 17:00:00 27.9 12 Norte 27 Nordeste 0 -- -- 23
2019-06-01 16:00:00 27.7 11 Sudeste 21 Sur 0 -- -- 25
2019-06-01 15:00:00 27.3 6 Sudeste 19 Nordeste 0 -- -- 28
2019-06-01 14:00:00 26.3 6 Sudoeste 16 Nordeste 0 -- -- 27
2019-06-01 13:00:00 25.5 5 Sudoeste 14 Oeste 0 -- -- 27
2019-06-01 12:00:00 25.1 6 Este 21 Sudeste 0 -- -- 34
2019-06-01 11:00:00 23 9 Sudeste 13 Este 0 -- -- 39
2019-06-01 10:00:00 20.3 7 Sudeste 10 Este 0 -- -- 50
2019-06-01 09:00:00 18 3 Este 6 Oeste 0 -- -- 54
2019-06-01 08:00:00 12 0 Calma 7 Oeste 0 -- -- 71
2019-06-01 07:00:00 8.8 7 Oeste 13 Sudoeste 0 -- -- 79
2019-06-01 06:00:00 9.2 6 Oeste 12 Oeste 0 -- -- 79
2019-06-01 05:00:00 9.2 9 Oeste 14 Oeste 0 -- -- 79
2019-06-01 04:00:00 10.7 7 Oeste 14 Oeste 0 -- -- 74
2019-06-01 03:00:00 10.9 5 Oeste 10 Sudoeste 0 -- -- 74
2019-06-01 02:00:00 12.3 7 Oeste 12 Oeste 0 -- -- 68
2019-06-01 01:00:00 11.9 5 Oeste 9 Sudoeste 0 -- -- 69
2019-06-01 00:00:00 13 5 Oeste 7 Oeste 0 -- -- 66
2019-05-31 23:00:00 15.3 0 Calma 9 Sudeste 0 -- -- 54
2019-05-31 22:00:00 18.6 7 Este 22 Nordeste 0 -- -- 40
2019-05-31 21:00:00 22.1 15 Nordeste 24 Nordeste 0 -- -- 34
2019-05-31 20:00:00 25.4 16 Nordeste 26 Nordeste 0 -- -- 30
2019-05-31 19:00:00 26.6 12 Norte 24 Norte 0 -- -- 24
2019-05-31 18:00:00 27.7 10 Norte 31 Nordeste 0 -- -- 22
2019-05-31 17:00:00 28.1 9 Nordeste 18 Norte 0 -- -- 18
2019-05-31 16:00:00 27.1 11 Norte 22 Noroeste 0 -- -- 18
2019-05-31 15:00:00 25.8 11 Noroeste 22 Este 0 -- -- 24
2019-05-31 14:00:00 25.8 9 Norte 17 Norte 0 -- -- 25
2019-05-31 13:00:00 24.7 9 Este 20 Este 0 -- -- 25
2019-05-31 12:00:00 23.8 5 Este 13 Este 0 -- -- 27
2019-05-31 11:00:00 22.3 4 Noroeste 12 Oeste 0 -- -- 35
2019-05-31 10:00:00 19 7 Oeste 14 Oeste 0 -- -- 40
2019-05-31 09:00:00 15.5 11 Oeste 17 Oeste 0 -- -- 53
2019-05-31 08:00:00 10.5 6 Oeste 13 Sudoeste 0 -- -- 67
2019-05-31 07:00:00 7.1 5 Sudoeste 15 Oeste 0 -- -- 76
2019-05-31 06:00:00 8.1 4 Oeste 11 Oeste 0 -- -- 72
2019-05-31 05:00:00 7.9 4 Oeste 10 Oeste 0 -- -- 74
2019-05-31 04:00:00 8.4 6 Oeste 10 Sudoeste 0 -- -- 72
2019-05-31 03:00:00 8.7 7 Oeste 12 Oeste 0 -- -- 72
2019-05-31 02:00:00 8.7 6 Oeste 8 Oeste 0 -- -- 73
2019-05-31 01:00:00 9.3 5 Oeste 10 Oeste 0 -- -- 71
2019-05-31 00:00:00 9.6 6 Oeste 10 Oeste 0 -- -- 69
2019-05-30 23:00:00 11.5 9 Oeste 11 Oeste 0 -- -- 63
2019-05-30 22:00:00 13.8 0 Calma 8 Nordeste 0 -- -- 57
2019-05-30 21:00:00 20 6 Nordeste 15 Nordeste 0 -- -- 38
2019-05-30 20:00:00 23.5 10 Nordeste 21 Norte 0 -- -- 28
2019-05-30 19:00:00 23.7 13 Norte 28 Nordeste 0 -- -- 24
2019-05-30 18:00:00 24.4 12 Norte 26 Norte 0 -- -- 28
2019-05-30 17:00:00 23.8 13 Norte 24 Nordeste 0 -- -- 28
2019-05-30 16:00:00 23.7 11 Nordeste 24 Nordeste 0 -- -- 28
2019-05-30 15:00:00 22 8 Norte 24 Nordeste 0 -- -- 33
2019-05-30 14:00:00 21.6 11 Nordeste 24 Nordeste 0 -- -- 37
2019-05-30 13:00:00 20.7 11 Nordeste 23 Nordeste 0 -- -- 40
2019-05-30 12:00:00 19.2 12 Nordeste 28 Norte 0 -- -- 41
2019-05-30 11:00:00 17.1 13 Nordeste 22 Nordeste 0 -- -- 48
2019-05-30 10:00:00 15.5 13 Nordeste 22 Nordeste 0 -- -- 51
2019-05-30 09:00:00 13 4 Oeste 10 Oeste 0 -- -- 58
2019-05-30 08:00:00 7.9 0 Calma 6 Oeste 0 -- -- 79
2019-05-30 07:00:00 4.7 4 Oeste 9 Oeste 0 -- -- 87
2019-05-30 06:00:00 4.5 3 Oeste 9 Oeste 0 -- -- 88
2019-05-30 05:00:00 5.4 6 Sudoeste 13 Oeste 0 -- -- 87
2019-05-30 04:00:00 6.5 9 Oeste 13 Oeste 0 -- -- 81
2019-05-30 03:00:00 6.9 0 Calma 12 Oeste 0 -- -- 81
2019-05-30 02:00:00 7.8 6 Oeste 15 Oeste 0 -- -- 78
2019-05-30 01:00:00 7.9 0 Calma 15 Oeste 0 -- -- 77
2019-05-30 00:00:00 9 10 Oeste 15 Noroeste 0 -- -- 74
2019-05-29 23:00:00 9.7 0 Calma 12 Noroeste 0 -- -- 70
2019-05-29 22:00:00 11.6 5 Norte 19 Noroeste 0 -- -- 65
2019-05-29 21:00:00 14.2 12 Noroeste 23 Norte 0 -- -- 56
2019-05-29 20:00:00 17.7 11 Norte 28 Noroeste 0 -- -- 46
2019-05-29 19:00:00 18.4 15 Noroeste 27 Norte 0 -- -- 43
2019-05-29 18:00:00 18.4 15 Noroeste 35 Noroeste 0 -- -- 43
2019-05-29 17:00:00 17.8 16 Norte 33 Norte 0 -- -- 44
2019-05-29 16:00:00 17.2 17 Norte 38 Norte 0 -- -- 44
2019-05-29 15:00:00 16.7 17 Norte 35 Norte 0 -- -- 43
2019-05-29 14:00:00 16.1 12 Norte 35 Noroeste 0 -- -- 44
2019-05-29 13:00:00 15.1 16 Norte 33 Norte 0 -- -- 46
2019-05-29 12:00:00 13.9 14 Norte 34 Norte 0 -- -- 51
2019-05-29 11:00:00 12.2 18 Norte 31 Norte 0 -- -- 56
2019-05-29 10:00:00 10.8 14 Nordeste 29 Norte 0 -- -- 60
2019-05-29 09:00:00 8.9 9 Norte 24 Oeste 0 -- -- 62
2019-05-29 08:00:00 5.9 8 Oeste 20 Oeste 0 -- -- 76
2019-05-29 07:00:00 4.1 13 Oeste 20 Oeste 0 -- -- 80
2019-05-29 06:00:00 4 12 Oeste 21 Oeste 0 -- -- 81
2019-05-29 05:00:00 4.1 11 Oeste 17 Oeste 0 -- -- 81
2019-05-29 04:00:00 4.2 9 Oeste 14 Oeste 0 -- -- 82
2019-05-29 03:00:00 5.4 4 Oeste 14 Noroeste 0 -- -- 76
2019-05-29 02:00:00 5.7 4 Noroeste 12 Noroeste 0 -- -- 74
2019-05-29 01:00:00 6.1 5 Norte 14 Noroeste 0 -- -- 77
2019-05-29 00:00:00 6.9 7 Noroeste 14 Norte 0 -- -- 74
2019-05-28 23:00:00 8 6 Noroeste 18 Norte 0 -- -- 67
2019-05-28 22:00:00 9 8 Norte 25 Norte 0 -- -- 64
2019-05-28 21:00:00 10.9 16 Norte 28 Nordeste 0 -- -- 61
2019-05-28 20:00:00 14.3 15 Norte 28 Noroeste 0 -- -- 51
2019-05-28 19:00:00 16.4 14 Norte 32 Norte 0 -- -- 47
2019-05-28 18:00:00 17.4 18 Norte 33 Noroeste 0 -- -- 43
2019-05-28 17:00:00 17.8 14 Norte 30 Norte 0 -- -- 37
2019-05-28 16:00:00 17.4 14 Noroeste 28 Oeste 0 -- -- 36
2019-05-28 15:00:00 17.1 12 Noroeste 42 Norte 0 -- -- 40
2019-05-28 14:00:00 16 12 Noroeste 25 Noroeste 0 -- -- 43
2019-05-28 13:00:00 14.9 9 Noroeste 26 Noroeste 0 -- -- 47
2019-05-28 12:00:00 13.3 12 Norte 27 Noroeste 0 -- -- 50
2019-05-28 11:00:00 12 8 Noroeste 22 Oeste 0 -- -- 58
2019-05-28 10:00:00 9.2 7 Oeste 14 Oeste 0 -- -- 73
2019-05-28 09:00:00 7.7 5 Norte 12 Nordeste 0 -- -- 82
2019-05-28 08:00:00 7.3 6 Nordeste 9 Nordeste 0 -- -- 87
2019-05-28 07:00:00 6.8 5 Sudeste 8 Sudeste 0 -- -- 92
2019-05-28 06:00:00 7.4 2 Nordeste 8 Nordeste 0 -- -- 91
2019-05-28 05:00:00 7 3 Norte 5 Nordeste 0 -- -- 93
2019-05-28 04:00:00 6.1 0 Calma 4 Sudeste 0 -- -- 91
2019-05-28 03:00:00 7.3 4 Este 9 Sur 0 -- -- 88
2019-05-28 02:00:00 9.2 5 Nordeste 11 Este 0 -- -- 82
2019-05-28 01:00:00 10.5 9 Nordeste 14 Nordeste 0 -- -- 82
2019-05-28 00:00:00 10.8 4 Nordeste 8 Nordeste 0 -- -- 84
2019-05-27 23:00:00 11.3 5 Nordeste 10 Nordeste 0 -- -- 79
2019-05-27 22:00:00 12.9 7 Nordeste 18 Nordeste 0 -- -- 71
2019-05-27 21:00:00 14.8 9 Nordeste 26 Nordeste 0 -- -- 66
2019-05-27 20:00:00 17.9 16 Nordeste 34 Nordeste 0 -- -- 55
2019-05-27 19:00:00 18.9 20 Nordeste 33 Nordeste 0 -- -- 52
2019-05-27 18:00:00 20.7 12 Nordeste 27 Noroeste 0 -- -- 45
2019-05-27 17:00:00 21.8 14 Nordeste 30 Norte 0 -- -- 41
2019-05-27 16:00:00 21.5 12 Norte 27 Noroeste 0 -- -- 41
2019-05-27 15:00:00 21.3 12 Noroeste 34 Noroeste 0 -- -- 40
2019-05-27 14:00:00 20.2 13 Norte 29 Norte 0 -- -- 41
2019-05-27 13:00:00 19.4 14 Noroeste 27 Noroeste 0 -- -- 45
2019-05-27 12:00:00 18.5 10 Noroeste 29 Oeste 0 -- -- 48
2019-05-27 11:00:00 16.4 10 Noroeste 21 Oeste 0 -- -- 55
2019-05-27 10:00:00 14.4 10 Oeste 20 Oeste 0 -- -- 61
2019-05-27 09:00:00 12.4 13 Oeste 25 Oeste 0 -- -- 65
2019-05-27 08:00:00 9.8 14 Oeste 23 Sudoeste 0 -- -- 74
2019-05-27 07:00:00 8.2 13 Oeste 22 Sudoeste 0 -- -- 80
2019-05-27 06:00:00 8.1 14 Oeste 25 Oeste 0 -- -- 80
2019-05-27 05:00:00 8.7 17 Oeste 28 Oeste 0 -- -- 79
2019-05-27 04:00:00 8.7 18 Oeste 31 Oeste 0 -- -- 80
2019-05-27 03:00:00 9 18 Oeste 26 Oeste 0 -- -- 80
2019-05-27 02:00:00 8.4 18 Oeste 24 Oeste 0 -- -- 82
2019-05-27 01:00:00 7.8 3 Oeste 12 Oeste 0 -- -- 86
2019-05-27 00:00:00 7 3 Oeste 6 Oeste 0 -- -- 87
2019-05-26 23:00:00 8.8 0 Calma 5 Este 0 -- -- 80
2019-05-26 22:00:00 10.6 3 Este 18 Nordeste 0 -- -- 73
2019-05-26 21:00:00 13.4 11 Nordeste 18 Norte 0 -- -- 62
2019-05-26 20:00:00 17 12 Nordeste 24 Norte 0 -- -- 50
2019-05-26 19:00:00 18.3 17 Nordeste 28 Nordeste 0 -- -- 47
2019-05-26 18:00:00 18.7 13 Nordeste 25 Nordeste 0 -- -- 45
2019-05-26 17:00:00 18.4 15 Nordeste 30 Norte 0 -- -- 44
2019-05-26 16:00:00 17.6 15 Nordeste 29 Norte 0 -- -- 46
2019-05-26 15:00:00 15.7 12 Norte 28 Norte 0 -- -- 51
2019-05-26 14:00:00 15.4 13 Norte 26 Norte 0 -- -- 53
2019-05-26 13:00:00 14.7 13 Nordeste 23 Nordeste 0 -- -- 53
2019-05-26 12:00:00 11.5 9 Norte 23 Norte 0 -- -- 64
2019-05-26 11:00:00 10.2 8 Noroeste 19 Norte 0 -- -- 70
2019-05-26 10:00:00 9.1 7 Norte 18 Norte 0 -- -- 76
2019-05-26 09:00:00 7.5 6 Oeste 12 Norte 0 -- -- 81
2019-05-26 08:00:00 7.3 4 Norte 12 Nordeste 0 -- -- 83
2019-05-26 07:00:00 6.4 3 Nordeste 8 Nordeste 0 -- -- 91
2019-05-26 06:00:00 6.3 3 Norte 9 Este 0 -- -- 91
2019-05-26 05:00:00 6.6 5 Este 9 Sudeste 0 -- -- 89
2019-05-26 04:00:00 6.7 5 Este 12 Este 0 -- -- 88
2019-05-26 03:00:00 7.3 3 Este 9 Nordeste 0 -- -- 86
2019-05-26 02:00:00 7.4 2 Norte 10 Este 0 -- -- 87
2019-05-26 01:00:00 6.9 3 Este 9 Norte 0 -- -- 88
2019-05-26 00:00:00 7.4 3 Oeste 6 Oeste 0 -- -- 89